Time;durP1;ratioP1;P1;durP2;ratioP2;P2;SDS_P1;SDS_P2;PMS_P1;PMS_P2;Temp;Humidity;BMP_temperature;BMP_pressure;BME280_temperature;BME280_humidity;BME280_pressure;Samples;Min_cycle;Max_cycle;Signal;HPM_P1;HPM_P2
2023/12/01 00:00:37;;;;;;;17.57;13.47;;;2.00;99.90;;;;;;5034736;28;20210;-85
2023/12/01 00:03:04;;;;;;;18.70;12.57;;;2.10;99.90;;;;;;5030320;28;20595;-84
2023/12/01 00:05:31;;;;;;;15.90;12.60;;;2.10;99.90;;;;;;5025101;28;20260;-88
2023/12/01 00:07:58;;;;;;;14.77;11.67;;;2.10;99.90;;;;;;5037550;28;20677;-84
2023/12/01 00:10:25;;;;;;;16.90;12.23;;;2.20;99.90;;;;;;5038628;28;20206;-84
2023/12/01 00:12:51;;;;;;;19.00;12.40;;;2.30;99.90;;;;;;5035817;28;20659;-84
2023/12/01 00:15:18;;;;;;;15.87;12.37;;;2.20;99.90;;;;;;5016572;28;20201;-84
2023/12/01 00:17:47;;;;;;;17.37;12.40;;;2.30;99.90;;;;;;5040583;28;20201;-84
2023/12/01 00:20:14;;;;;;;16.77;13.10;;;2.30;99.90;;;;;;5035697;28;20201;-87
2023/12/01 00:22:40;;;;;;;16.47;11.83;;;2.20;99.90;;;;;;5037006;28;20317;-88
2023/12/01 00:25:08;;;;;;;18.20;13.37;;;2.10;99.90;;;;;;5040949;28;20198;-84
2023/12/01 00:27:35;;;;;;;20.57;13.37;;;2.10;99.90;;;;;;5031162;28;20199;-84
2023/12/01 00:30:03;;;;;;;20.60;13.77;;;2.00;99.90;;;;;;5034205;28;20198;-84
2023/12/01 00:32:30;;;;;;;17.93;13.50;;;2.00;99.90;;;;;;5033718;28;20207;-84
2023/12/01 00:34:58;;;;;;;19.90;13.97;;;2.00;99.90;;;;;;5032327;28;20210;-89
2023/12/01 00:37:25;;;;;;;19.23;13.30;;;2.00;99.90;;;;;;5031443;28;20199;-84
2023/12/01 00:39:51;;;;;;;16.10;13.10;;;2.00;99.90;;;;;;5037938;28;20203;-85
2023/12/01 00:42:18;;;;;;;18.73;13.63;;;2.00;99.90;;;;;;5034458;28;20224;-85
2023/12/01 00:44:46;;;;;;;17.60;13.50;;;2.00;99.90;;;;;;5032527;28;20580;-84
2023/12/01 00:47:13;;;;;;;15.73;11.80;;;2.00;99.90;;;;;;5035598;28;20206;-84
2023/12/01 00:49:40;;;;;;;18.57;12.57;;;2.00;99.90;;;;;;5035837;28;20206;-84
2023/12/01 00:52:08;;;;;;;18.93;11.97;;;2.10;99.90;;;;;;5026523;28;20199;-85
2023/12/01 00:54:35;;;;;;;15.80;11.87;;;2.10;99.90;;;;;;5027459;28;20194;-84
2023/12/01 00:57:02;;;;;;;13.97;11.10;;;2.10;99.90;;;;;;5032285;28;20203;-85
2023/12/01 00:59:28;;;;;;;14.40;10.90;;;2.30;99.90;;;;;;5030458;28;20207;-83
2023/12/01 01:01:55;;;;;;;15.97;11.63;;;2.20;99.90;;;;;;5030641;28;20233;-85
2023/12/01 01:04:22;;;;;;;17.33;12.63;;;2.10;99.90;;;;;;5032827;28;20778;-83
2023/12/01 01:06:49;;;;;;;18.30;12.33;;;2.10;99.90;;;;;;5028272;28;20199;-83
2023/12/01 01:09:19;;;;;;;16.50;12.57;;;2.10;99.90;;;;;;5033269;28;20198;-83
2023/12/01 01:11:46;;;;;;;15.50;12.13;;;2.10;99.90;;;;;;5033045;28;20194;-83
2023/12/01 01:14:13;;;;;;;16.90;12.27;;;2.00;99.90;;;;;;5030992;28;20198;-83
2023/12/01 01:16:40;;;;;;;15.30;11.33;;;2.10;99.90;;;;;;5034724;28;20213;-84
2023/12/01 01:19:07;;;;;;;14.97;12.67;;;2.00;99.90;;;;;;5016154;28;20207;-84
2023/12/01 01:21:34;;;;;;;16.30;11.93;;;2.00;99.90;;;;;;5030721;28;20218;-84
2023/12/01 01:24:01;;;;;;;16.53;11.43;;;2.10;99.90;;;;;;5033217;28;20226;-84
2023/12/01 01:26:29;;;;;;;16.03;12.17;;;2.20;99.90;;;;;;5037222;28;20603;-85
2023/12/01 01:28:56;;;;;;;14.37;11.50;;;2.10;99.90;;;;;;5034201;28;20213;-85
2023/12/01 01:31:23;;;;;;;15.33;11.37;;;2.10;99.90;;;;;;5030914;28;20203;-84
2023/12/01 01:33:50;;;;;;;14.73;10.97;;;2.20;99.90;;;;;;5028063;28;20206;-84
2023/12/01 01:36:18;;;;;;;15.00;11.20;;;2.20;99.90;;;;;;5035240;28;20194;-84
2023/12/01 01:38:44;;;;;;;13.27;11.10;;;2.20;99.90;;;;;;5032154;28;20194;-84
2023/12/01 01:41:11;;;;;;;13.67;10.50;;;2.30;99.90;;;;;;5032158;28;20210;-84
2023/12/01 01:43:39;;;;;;;13.47;9.97;;;2.30;99.90;;;;;;5031365;28;20616;-86
2023/12/01 01:46:07;;;;;;;13.83;10.50;;;2.30;99.90;;;;;;5030202;28;20202;-85
2023/12/01 01:48:35;;;;;;;13.10;10.47;;;2.40;99.90;;;;;;5036755;28;20202;-84
2023/12/01 01:51:03;;;;;;;13.20;9.80;;;2.30;99.90;;;;;;5033509;28;20231;-83
2023/12/01 01:53:31;;;;;;;12.90;9.63;;;2.30;99.90;;;;;;5028476;28;20209;-84
2023/12/01 01:55:59;;;;;;;12.27;10.00;;;2.40;99.90;;;;;;5031226;28;20199;-85
2023/12/01 01:58:26;;;;;;;12.60;9.50;;;2.30;99.90;;;;;;5016621;28;20205;-84
2023/12/01 02:00:54;;;;;;;11.93;10.00;;;2.30;99.90;;;;;;5032747;28;20195;-84
2023/12/01 02:03:23;;;;;;;13.93;9.97;;;2.20;99.90;;;;;;5032360;28;20309;-86
2023/12/01 02:05:50;;;;;;;13.00;10.10;;;2.10;99.90;;;;;;5028797;28;20213;-85
2023/12/01 02:08:25;;;;;;;14.03;10.87;;;2.10;99.90;;;;;;5029373;28;20191;-84
2023/12/01 02:10:53;;;;;;;13.70;10.23;;;2.10;99.90;;;;;;5028727;28;20323;-84
2023/12/01 02:13:20;;;;;;;11.90;9.47;;;2.10;99.90;;;;;;5029160;28;20202;-83
2023/12/01 02:15:47;;;;;;;13.57;10.33;;;2.30;99.90;;;;;;5031575;28;20203;-84
2023/12/01 02:18:34;;;;;;;14.13;10.17;;;2.30;99.90;;;;;;5020270;28;20197;-85
2023/12/01 02:21:01;;;;;;;12.57;10.30;;;2.20;99.90;;;;;;5035052;28;20674;-84
2023/12/01 02:23:29;;;;;;;13.80;9.97;;;2.20;99.90;;;;;;5031146;28;20221;-85
2023/12/01 02:25:56;;;;;;;14.00;10.53;;;2.20;99.90;;;;;;5028508;28;20203;-84
2023/12/01 02:28:23;;;;;;;13.07;10.40;;;2.20;99.90;;;;;;5029283;28;20190;-85
2023/12/01 02:30:52;;;;;;;12.53;9.80;;;2.10;99.90;;;;;;5028133;28;20206;-84
2023/12/01 02:33:20;;;;;;;13.03;10.83;;;2.10;99.90;;;;;;5028840;28;20214;-84
2023/12/01 02:35:47;;;;;;;12.20;9.30;;;2.10;99.90;;;;;;5032361;28;20860;-84
2023/12/01 02:38:14;;;;;;;15.20;11.10;;;2.10;99.90;;;;;;5038366;28;20198;-85
2023/12/01 02:40:44;;;;;;;14.40;10.80;;;2.10;99.90;;;;;;5030999;28;20198;-84
2023/12/01 02:43:11;;;;;;;15.13;11.30;;;2.00;99.90;;;;;;5024535;28;20242;-85
2023/12/01 02:45:38;;;;;;;12.60;9.93;;;2.00;99.90;;;;;;5027676;28;20713;-85
2023/12/01 02:48:05;;;;;;;13.27;9.87;;;2.10;99.90;;;;;;5034587;28;20202;-85
2023/12/01 02:50:32;;;;;;;13.53;9.87;;;2.20;99.90;;;;;;5033665;28;20195;-84
2023/12/01 02:53:00;;;;;;;12.00;9.77;;;2.30;99.90;;;;;;5031085;28;20213;-84
2023/12/01 02:55:26;;;;;;;13.53;9.87;;;2.40;99.90;;;;;;5021195;28;20597;-87
2023/12/01 02:57:55;;;;;;;14.27;10.20;;;2.50;99.90;;;;;;5037032;28;20203;-83
2023/12/01 03:00:22;;;;;;;13.93;10.07;;;2.40;99.90;;;;;;5024691;28;20207;-84
2023/12/01 03:02:50;;;;;;;14.23;10.60;;;2.30;99.90;;;;;;5039639;28;20224;-86
2023/12/01 03:05:17;;;;;;;13.47;10.57;;;2.20;99.90;;;;;;5030292;28;20199;-84
2023/12/01 03:07:44;;;;;;;16.33;11.50;;;2.10;99.90;;;;;;5030141;28;20233;-84
2023/12/01 03:10:12;;;;;;;14.07;10.60;;;2.10;99.90;;;;;;5032486;28;20202;-85
2023/12/01 03:12:39;;;;;;;14.93;10.67;;;2.10;99.90;;;;;;5037359;28;20202;-84
2023/12/01 03:15:10;;;;;;;14.33;10.37;;;2.10;99.90;;;;;;5032536;28;20206;-85
2023/12/01 03:17:37;;;;;;;12.13;9.60;;;2.20;99.90;;;;;;5026969;28;20199;-85
2023/12/01 03:20:10;;;;;;;11.57;9.80;;;2.20;99.90;;;;;;5028494;28;20277;-84
2023/12/01 03:22:37;;;;;;;12.50;9.33;;;2.30;99.90;;;;;;5028713;28;20313;-84
2023/12/01 03:25:09;;;;;;;13.33;10.73;;;2.30;99.90;;;;;;5028765;28;20190;-84
2023/12/01 03:27:42;;;;;;;11.77;9.43;;;2.30;99.90;;;;;;5029163;28;20682;-84
2023/12/01 03:30:14;;;;;;;12.20;9.27;;;2.30;99.90;;;;;;5028494;28;20282;-85
2023/12/01 03:32:45;;;;;;;12.93;9.10;;;2.40;99.90;;;;;;5033848;28;20209;-85
2023/12/01 03:35:13;;;;;;;12.60;9.50;;;2.50;99.90;;;;;;5029292;28;20206;-84
2023/12/01 03:37:41;;;;;;;11.67;9.17;;;2.50;99.90;;;;;;5026761;28;20203;-83
2023/12/01 03:40:09;;;;;;;11.43;8.93;;;2.40;99.90;;;;;;5031558;28;20205;-85
2023/12/01 03:42:38;;;;;;;11.00;9.10;;;2.50;99.90;;;;;;5031721;28;20277;-84
2023/12/01 03:45:06;;;;;;;14.77;10.00;;;2.50;99.90;;;;;;5026797;28;20198;-84
2023/12/01 03:47:36;;;;;;;11.63;9.27;;;2.40;99.90;;;;;;5024211;28;20222;-85
2023/12/01 03:50:03;;;;;;;9.63;8.57;;;2.40;99.90;;;;;;5030172;28;20731;-84
2023/12/01 03:52:30;;;;;;;11.67;9.03;;;2.50;99.90;;;;;;5031077;28;20203;-83
2023/12/01 03:54:58;;;;;;;11.00;8.70;;;2.50;99.90;;;;;;5026692;28;20470;-85
2023/12/01 03:57:27;;;;;;;12.90;9.27;;;2.50;99.90;;;;;;5026647;28;20209;-84
2023/12/01 03:59:54;;;;;;;10.27;9.03;;;2.50;99.90;;;;;;5032620;28;20282;-84
2023/12/01 04:02:21;;;;;;;12.97;9.20;;;2.50;99.90;;;;;;5032204;28;20199;-84
2023/12/01 04:04:50;;;;;;;10.43;8.40;;;2.50;99.90;;;;;;5027053;28;20248;-87
2023/12/01 04:07:17;;;;;;;12.50;8.97;;;2.50;99.90;;;;;;5031902;28;20718;-84
2023/12/01 04:09:44;;;;;;;10.03;8.63;;;2.50;99.90;;;;;;5031330;28;20206;-84
2023/12/01 04:12:11;;;;;;;12.53;8.83;;;2.40;99.90;;;;;;5023415;28;20207;-83
2023/12/01 04:14:38;;;;;;;11.43;8.93;;;2.30;99.90;;;;;;5034114;28;20205;-84
2023/12/01 04:17:10;;;;;;;12.67;8.97;;;2.40;99.90;;;;;;5026551;28;20202;-84
2023/12/01 04:19:37;;;;;;;10.50;8.50;;;2.60;99.90;;;;;;5030966;28;20717;-83
2023/12/01 04:22:06;;;;;;;12.47;8.80;;;2.60;99.90;;;;;;5031086;28;20214;-84
2023/12/01 04:24:34;;;;;;;11.83;8.53;;;2.60;99.90;;;;;;5034147;28;20227;-84
2023/12/01 04:27:01;;;;;;;10.70;8.47;;;2.50;99.90;;;;;;5033270;28;20647;-84
2023/12/01 04:29:29;;;;;;;12.00;8.87;;;2.40;99.90;;;;;;5029868;28;20260;-85
2023/12/01 04:31:56;;;;;;;10.87;8.90;;;2.40;99.90;;;;;;5029872;28;20214;-84
2023/12/01 04:34:26;;;;;;;11.23;9.00;;;2.40;99.90;;;;;;5033510;28;20202;-84
2023/12/01 04:36:53;;;;;;;10.33;9.17;;;2.40;99.90;;;;;;5031172;28;20226;-84
2023/12/01 04:39:22;;;;;;;10.03;8.70;;;2.40;99.90;;;;;;5029507;28;20199;-84
2023/12/01 04:41:50;;;;;;;13.00;9.30;;;2.40;99.90;;;;;;5032937;28;20199;-87
2023/12/01 04:44:17;;;;;;;12.27;9.33;;;2.30;99.90;;;;;;5027471;28;20227;-91
2023/12/01 04:46:43;;;;;;;11.27;9.17;;;2.30;99.90;;;;;;5033113;28;20195;-84
2023/12/01 04:49:10;;;;;;;14.33;9.43;;;2.30;99.90;;;;;;5035721;28;20201;-84
2023/12/01 04:51:37;;;;;;;12.17;9.27;;;2.30;99.90;;;;;;5032315;28;20202;-84
2023/12/01 04:54:04;;;;;;;12.00;9.20;;;2.50;99.90;;;;;;5036124;28;20681;-86
2023/12/01 04:56:33;;;;;;;9.87;8.27;;;2.60;99.90;;;;;;5032052;28;20202;-84
2023/12/01 04:59:01;;;;;;;11.60;9.27;;;2.70;99.90;;;;;;5026878;28;20206;-85
2023/12/01 05:01:28;;;;;;;12.63;10.50;;;2.70;99.90;;;;;;5035809;28;20204;-83
2023/12/01 05:03:55;;;;;;;12.93;10.00;;;2.60;99.90;;;;;;5026926;28;20222;-84
2023/12/01 05:06:22;;;;;;;13.53;10.33;;;2.60;99.90;;;;;;5029341;28;20833;-85
2023/12/01 05:08:49;;;;;;;17.30;11.50;;;2.60;99.90;;;;;;5033594;28;20199;-85
2023/12/01 05:11:16;;;;;;;16.00;10.70;;;2.50;99.90;;;;;;5031747;28;20195;-84
2023/12/01 05:13:44;;;;;;;14.97;11.30;;;2.40;99.90;;;;;;5027787;28;20205;-85
2023/12/01 05:16:13;;;;;;;16.13;11.83;;;2.40;99.90;;;;;;5031661;28;20683;-85
2023/12/01 05:18:39;;;;;;;16.00;9.93;;;2.40;99.90;;;;;;5025612;28;20195;-84
2023/12/01 05:21:09;;;;;;;15.30;10.73;;;2.40;99.90;;;;;;5035840;28;20304;-85
2023/12/01 05:23:35;;;;;;;13.53;10.30;;;2.30;99.90;;;;;;5024792;28;20222;-84
2023/12/01 05:26:03;;;;;;;12.97;10.17;;;2.40;99.90;;;;;;5011163;28;20298;-85
2023/12/01 05:28:29;;;;;;;10.73;8.73;;;2.40;99.90;;;;;;5034314;28;20199;-84
2023/12/01 05:30:58;;;;;;;15.47;10.57;;;2.50;99.90;;;;;;5032798;28;20207;-86
2023/12/01 05:33:25;;;;;;;16.03;10.60;;;2.40;99.90;;;;;;5033507;28;20202;-87
2023/12/01 05:35:52;;;;;;;14.10;10.40;;;2.40;99.90;;;;;;5031030;28;20637;-85
2023/12/01 05:38:18;;;;;;;14.70;10.40;;;2.30;99.90;;;;;;5019654;28;20209;-85
2023/12/01 05:40:45;;;;;;;14.03;9.90;;;2.30;99.90;;;;;;5033223;28;20245;-89
2023/12/01 05:43:13;;;;;;;11.67;9.37;;;2.20;99.90;;;;;;5032182;28;20203;-85
2023/12/01 05:45:40;;;;;;;11.80;9.10;;;2.20;99.90;;;;;;5034637;28;20194;-84
2023/12/01 05:48:08;;;;;;;10.33;8.50;;;2.20;99.90;;;;;;5025083;28;20206;-86
2023/12/01 05:50:35;;;;;;;11.83;8.97;;;2.20;99.90;;;;;;5027603;28;20191;-87
2023/12/01 05:53:03;;;;;;;10.23;8.70;;;2.20;99.90;;;;;;5031190;28;20209;-86
2023/12/01 05:55:33;;;;;;;10.47;8.40;;;2.10;99.90;;;;;;5028301;28;20248;-85
2023/12/01 05:58:02;;;;;;;11.87;8.10;;;2.10;99.90;;;;;;5030253;28;20577;-85
2023/12/01 06:00:30;;;;;;;9.73;8.20;;;2.10;99.90;;;;;;5017336;28;20575;-84
2023/12/01 06:02:58;;;;;;;12.27;8.67;;;2.10;99.90;;;;;;5033741;28;20233;-87
2023/12/01 06:05:27;;;;;;;12.97;9.20;;;2.10;99.90;;;;;;5027995;28;20265;-85
2023/12/01 06:07:58;;;;;;;13.87;9.47;;;2.00;99.90;;;;;;5027861;28;20199;-85
2023/12/01 06:10:26;;;;;;;13.40;9.23;;;2.00;99.90;;;;;;5035136;28;20193;-85
2023/12/01 06:12:53;;;;;;;12.80;9.00;;;2.00;99.90;;;;;;5032996;28;20211;-88
2023/12/01 06:15:20;;;;;;;10.40;8.27;;;2.00;99.90;;;;;;5034207;28;20655;-85
2023/12/01 06:17:49;;;;;;;10.60;7.73;;;2.00;99.90;;;;;;5033299;28;20202;-85
2023/12/01 06:20:18;;;;;;;7.43;6.07;;;2.00;99.90;;;;;;5032451;28;20191;-91
2023/12/01 07:08:15;;;;;;;8.13;6.37;;;2.30;99.90;;;;;;5049816;28;20250;-83
2023/12/01 07:10:41;;;;;;;9.00;6.90;;;2.20;99.90;;;;;;5047285;28;20198;-84
2023/12/01 07:13:08;;;;;;;8.60;6.40;;;2.10;99.90;;;;;;5047354;28;20212;-83
2023/12/01 07:15:37;;;;;;;8.63;6.70;;;2.10;99.90;;;;;;5039527;28;20201;-83
2023/12/01 07:18:04;;;;;;;7.97;6.97;;;2.10;99.90;;;;;;5051468;28;20966;-82
2023/12/01 07:20:33;;;;;;;8.37;7.03;;;2.00;99.90;;;;;;5047418;28;20205;-83
2023/12/01 07:23:00;;;;;;;8.73;6.97;;;2.00;99.90;;;;;;5045145;28;20213;-83
2023/12/01 07:25:28;;;;;;;9.77;7.27;;;2.00;99.90;;;;;;5041711;28;20221;-87
2023/12/01 07:27:57;;;;;;;9.73;7.23;;;2.00;99.90;;;;;;5046104;28;20209;-82
2023/12/01 07:30:24;;;;;;;10.23;7.70;;;2.10;99.90;;;;;;5046280;28;20202;-82
2023/12/01 07:32:53;;;;;;;8.43;6.90;;;2.10;99.90;;;;;;5044351;28;20194;-82
2023/12/01 07:35:20;;;;;;;8.97;7.50;;;2.20;99.90;;;;;;5043481;28;20292;-83
2023/12/01 07:37:51;;;;;;;8.63;7.30;;;2.10;99.90;;;;;;5046606;28;20198;-82
2023/12/01 07:40:19;;;;;;;8.67;7.20;;;2.10;99.90;;;;;;5049389;28;20194;-83
2023/12/01 07:42:48;;;;;;;9.77;7.40;;;2.10;99.90;;;;;;5049791;28;20610;-84
2023/12/01 07:45:17;;;;;;;8.17;6.80;;;2.20;99.90;;;;;;5049924;28;20583;-82
2023/12/01 07:47:44;;;;;;;8.20;6.80;;;2.30;99.90;;;;;;5049110;28;20226;-82
2023/12/01 07:50:13;;;;;;;7.80;6.50;;;2.30;99.90;;;;;;5052350;28;20206;-84
2023/12/01 07:52:41;;;;;;;8.70;6.70;;;2.50;99.90;;;;;;5051039;28;20193;-84
2023/12/01 07:55:09;;;;;;;10.73;7.50;;;2.50;99.90;;;;;;5050990;28;20216;-83
2023/12/01 07:57:35;;;;;;;8.53;6.90;;;2.40;99.90;;;;;;5049775;28;20206;-82
2023/12/01 08:00:05;;;;;;;8.13;6.50;;;2.30;99.90;;;;;;5044940;28;20194;-85
2023/12/01 08:02:32;;;;;;;9.27;6.60;;;2.30;99.90;;;;;;5052976;28;20651;-86
2023/12/01 08:04:59;;;;;;;8.43;6.80;;;2.30;99.90;;;;;;5050461;28;20214;-83
2023/12/01 08:07:26;;;;;;;8.17;7.03;;;2.30;99.90;;;;;;5052506;28;20593;-85
2023/12/01 08:09:53;;;;;;;8.73;6.40;;;2.30;99.90;;;;;;5045982;28;20205;-84
2023/12/01 08:12:23;;;;;;;9.37;7.43;;;2.40;99.90;;;;;;5048232;28;20205;-84
2023/12/01 08:14:51;;;;;;;7.50;6.47;;;2.40;99.90;;;;;;5052030;28;20251;-86
2023/12/01 08:17:19;;;;;;;9.23;6.53;;;2.40;99.90;;;;;;5044424;28;20202;-85
2023/12/01 08:19:45;;;;;;;6.57;5.50;;;2.50;99.90;;;;;;5047679;28;20651;-84
2023/12/01 08:22:12;;;;;;;6.77;6.00;;;2.70;99.90;;;;;;5048053;28;20237;-85
2023/12/01 08:24:39;;;;;;;6.90;5.70;;;2.80;99.90;;;;;;5050549;28;20316;-84
2023/12/01 08:27:06;;;;;;;8.03;5.90;;;2.80;99.90;;;;;;5052754;28;20764;-86
2023/12/01 08:29:33;;;;;;;8.10;6.53;;;2.80;99.90;;;;;;5046024;28;20668;-84
2023/12/01 08:32:00;;;;;;;9.23;6.40;;;2.70;99.90;;;;;;5044411;28;20562;-83
2023/12/01 08:34:28;;;;;;;7.53;6.50;;;2.70;99.90;;;;;;5051413;28;20197;-84
2023/12/01 08:36:55;;;;;;;7.17;6.27;;;2.80;99.90;;;;;;5044635;28;20190;-84
2023/12/01 08:39:23;;;;;;;7.93;6.43;;;2.90;99.90;;;;;;5047891;28;20214;-85
2023/12/01 08:41:53;;;;;;;7.70;5.60;;;3.00;99.90;;;;;;5047130;28;20631;-84
2023/12/01 08:44:20;;;;;;;7.70;5.83;;;3.00;99.90;;;;;;5050690;28;20307;-85
2023/12/01 08:46:47;;;;;;;7.87;6.37;;;3.10;99.90;;;;;;5049933;28;20201;-84
2023/12/01 08:49:13;;;;;;;8.50;7.00;;;3.10;99.90;;;;;;5046897;28;20199;-83
2023/12/01 08:51:42;;;;;;;9.83;7.40;;;3.10;99.90;;;;;;5045481;28;20202;-84
2023/12/01 08:54:09;;;;;;;10.13;8.37;;;3.10;99.90;;;;;;5047964;28;20209;-83
2023/12/01 08:56:36;;;;;;;9.20;7.53;;;3.00;99.90;;;;;;5047810;28;20665;-86
2023/12/01 08:59:03;;;;;;;9.83;7.63;;;3.10;99.90;;;;;;5050511;28;20541;-84
2023/12/01 09:01:30;;;;;;;8.60;6.87;;;3.20;99.90;;;;;;5044496;28;20198;-83
2023/12/01 09:03:56;;;;;;;10.43;7.50;;;3.30;99.90;;;;;;5050915;28;20194;-83
2023/12/01 09:06:23;;;;;;;13.00;9.47;;;3.30;99.90;;;;;;5049735;28;20209;-85
2023/12/01 09:08:52;;;;;;;14.23;10.30;;;3.30;99.90;;;;;;5048265;28;20651;-84
2023/12/01 09:11:18;;;;;;;15.80;10.50;;;3.20;99.90;;;;;;5047576;28;20559;-83
2023/12/01 09:13:46;;;;;;;16.60;11.90;;;3.20;99.90;;;;;;5052109;28;20202;-83
2023/12/01 09:16:12;;;;;;;15.90;9.63;;;3.20;99.90;;;;;;5046758;28;20202;-83
2023/12/01 09:18:39;;;;;;;13.73;9.23;;;3.20;99.90;;;;;;5051222;28;20194;-83
2023/12/01 09:21:07;;;;;;;15.53;9.00;;;3.20;99.90;;;;;;5048086;28;20207;-83
2023/12/01 09:23:33;;;;;;;12.83;9.47;;;3.30;99.90;;;;;;5042991;28;20618;-83
2023/12/01 09:26:01;;;;;;;13.33;8.90;;;3.30;99.90;;;;;;5047419;28;20218;-83
2023/12/01 09:28:28;;;;;;;15.87;8.47;;;3.40;99.90;;;;;;5052184;28;20217;-83
2023/12/01 09:30:55;;;;;;;12.47;8.17;;;3.30;99.90;;;;;;5054000;28;20194;-84
2023/12/01 09:33:22;;;;;;;14.17;8.80;;;3.40;99.90;;;;;;5047579;28;20214;-83
2023/12/01 09:35:49;;;;;;;14.67;7.83;;;3.50;99.90;;;;;;5045117;28;20210;-83
2023/12/01 09:38:15;;;;;;;10.43;7.47;;;3.50;99.90;;;;;;5052298;28;20198;-85
2023/12/01 09:40:43;;;;;;;13.00;7.63;;;3.40;99.90;;;;;;5051796;28;20201;-86
2023/12/01 09:43:12;;;;;;;11.23;7.70;;;3.50;99.90;;;;;;5045068;28;20194;-87
2023/12/01 09:45:39;;;;;;;10.87;7.17;;;3.50;99.90;;;;;;5047436;28;20310;-88
2023/12/01 09:48:09;;;;;;;10.20;7.17;;;3.50;99.90;;;;;;5050537;28;20194;-87
2023/12/01 09:50:36;;;;;;;12.30;7.53;;;3.40;99.90;;;;;;5052637;28;20202;-86
2023/12/01 09:53:03;;;;;;;13.00;8.50;;;3.50;99.90;;;;;;5047012;28;20198;-86
2023/12/01 09:55:31;;;;;;;15.90;8.97;;;3.50;99.90;;;;;;5041060;28;20206;-87
2023/12/01 09:57:58;;;;;;;13.43;9.00;;;3.60;99.90;;;;;;5045242;28;20205;-86
2023/12/01 10:00:27;;;;;;;12.33;9.40;;;3.60;99.90;;;;;;5043900;28;20201;-88
2023/12/01 10:02:53;;;;;;;13.53;9.43;;;3.70;99.90;;;;;;5047200;28;20209;-88
2023/12/01 10:05:20;;;;;;;12.43;9.57;;;3.80;99.90;;;;;;5042477;28;20222;-87
2023/12/01 10:07:49;;;;;;;13.33;8.73;;;4.00;99.50;;;;;;5045903;28;20210;-85
2023/12/01 10:10:20;;;;;;;12.73;9.17;;;4.10;99.10;;;;;;5048980;28;20559;-86
2023/12/01 10:12:55;;;;;;;11.90;9.17;;;4.10;98.90;;;;;;5047393;28;20194;-86
2023/12/01 10:15:24;;;;;;;9.90;8.37;;;4.10;98.80;;;;;;5046451;28;20202;-86
2023/12/01 10:17:52;;;;;;;12.33;7.77;;;4.00;98.90;;;;;;5044037;28;21221;-88
2023/12/01 10:20:21;;;;;;;11.60;7.67;;;4.10;99.20;;;;;;5049392;28;20208;-86
2023/12/01 10:22:48;;;;;;;8.70;7.73;;;4.00;98.90;;;;;;5046124;28;20220;-86
2023/12/01 10:25:15;;;;;;;8.63;7.30;;;4.00;98.80;;;;;;5039818;28;20657;-86
2023/12/01 10:27:42;;;;;;;9.17;7.43;;;3.90;99.20;;;;;;5039113;28;20199;-84
2023/12/01 10:30:14;;;;;;;10.13;7.13;;;3.90;99.10;;;;;;5044139;28;20228;-87
2023/12/01 10:32:42;;;;;;;9.13;6.83;;;3.90;99.40;;;;;;5043403;28;20190;-90
2023/12/01 10:35:11;;;;;;;7.90;6.33;;;3.80;99.70;;;;;;5051057;28;20205;-90
2023/12/01 10:37:38;;;;;;;8.33;6.30;;;3.80;99.60;;;;;;5047005;28;20805;-86
2023/12/01 10:40:07;;;;;;;8.50;6.50;;;3.70;99.40;;;;;;5039664;28;20651;-85
2023/12/01 10:42:35;;;;;;;8.27;6.27;;;3.80;99.90;;;;;;5050303;28;20198;-85
2023/12/01 10:45:03;;;;;;;7.63;6.50;;;3.70;99.90;;;;;;5043112;28;20818;-85
2023/12/01 10:47:30;;;;;;;8.30;6.30;;;3.60;99.90;;;;;;5043704;28;20396;-88
2023/12/01 10:49:57;;;;;;;7.47;5.83;;;3.60;99.90;;;;;;5044250;28;20195;-86
2023/12/01 10:52:26;;;;;;;8.20;6.60;;;3.60;99.90;;;;;;5048801;28;20198;-87
2023/12/01 10:54:54;;;;;;;7.73;6.30;;;3.50;99.90;;;;;;5046128;28;20224;-87
2023/12/01 10:57:31;;;;;;;8.00;6.60;;;3.60;99.90;;;;;;5033890;28;20703;-87
2023/12/01 11:00:04;;;;;;;8.30;6.87;;;3.70;99.90;;;;;;5049312;28;20198;-87
2023/12/01 11:02:31;;;;;;;8.23;6.60;;;3.70;99.90;;;;;;5045325;28;20226;-89
2023/12/01 11:04:59;;;;;;;8.27;6.57;;;3.60;99.90;;;;;;5049347;28;20248;-89
2023/12/01 11:07:41;;;;;;;8.10;7.13;;;3.70;99.90;;;;;;5040321;28;20210;-89
2023/12/01 11:10:22;;;;;;;9.67;6.80;;;3.70;99.90;;;;;;5044935;28;20342;-89
2023/12/01 11:13:04;;;;;;;8.43;6.70;;;3.70;99.90;;;;;;5047373;28;20658;-92
2023/12/01 11:15:34;;;;;;;9.73;7.80;;;3.80;99.90;;;;;;5056057;28;20210;-87
2023/12/01 11:18:01;;;;;;;8.13;6.97;;;3.80;99.80;;;;;;5045688;28;20240;-85
2023/12/01 11:20:32;;;;;;;10.53;7.57;;;3.80;99.60;;;;;;5043762;28;20209;-87
2023/12/01 11:23:06;;;;;;;9.97;8.23;;;3.60;99.80;;;;;;5045253;28;20301;-84
2023/12/01 11:25:44;;;;;;;9.00;7.27;;;3.40;99.90;;;;;;5043242;28;20922;-84
2023/12/01 11:28:25;;;;;;;10.37;7.53;;;3.30;99.90;;;;;;5046108;28;20531;-85
2023/12/01 11:31:07;;;;;;;9.43;7.60;;;3.10;99.90;;;;;;5047940;28;20229;-84
2023/12/01 11:33:37;;;;;;;9.43;7.47;;;3.10;99.90;;;;;;5047211;28;20205;-84
2023/12/01 11:36:24;;;;;;;10.37;7.80;;;3.30;99.90;;;;;;5046315;28;20201;-85
2023/12/01 11:39:23;;;;;;;11.10;8.57;;;3.30;99.90;;;;;;5044505;28;20194;-88
2023/12/01 11:41:54;;;;;;;11.47;8.97;;;3.10;99.90;;;;;;5046738;28;20244;-83
2023/12/01 11:44:24;;;;;;;12.57;9.53;;;3.00;99.90;;;;;;5046046;28;20205;-83
2023/12/01 11:46:56;;;;;;;12.33;9.23;;;2.90;99.90;;;;;;5049464;28;20279;-88
2023/12/01 11:49:28;;;;;;;13.17;10.03;;;2.80;99.90;;;;;;5045991;28;20202;-85
2023/12/01 11:51:56;;;;;;;14.63;10.60;;;2.70;99.90;;;;;;5045700;28;20537;-84
2023/12/01 11:54:24;;;;;;;12.20;9.70;;;2.70;99.90;;;;;;5041975;28;20197;-87
2023/12/01 11:56:53;;;;;;;13.17;10.03;;;2.70;99.90;;;;;;5045539;28;20213;-84
2023/12/01 11:59:20;;;;;;;9.97;8.63;;;2.70;99.90;;;;;;5042323;28;20299;-81
2023/12/01 12:01:47;;;;;;;11.33;9.30;;;2.70;99.90;;;;;;5047224;28;20202;-81
2023/12/01 12:04:16;;;;;;;9.83;8.33;;;2.70;99.90;;;;;;5044047;28;20666;-83
2023/12/01 12:06:44;;;;;;;10.33;8.03;;;2.70;99.90;;;;;;5042016;28;20299;-86
2023/12/01 12:09:17;;;;;;;10.63;8.70;;;2.80;99.90;;;;;;5043452;28;20198;-83
2023/12/01 12:11:47;;;;;;;10.33;8.33;;;2.90;99.90;;;;;;5046051;28;20229;-85
2023/12/01 12:14:15;;;;;;;10.13;8.00;;;3.00;99.90;;;;;;5046285;28;20224;-82
2023/12/01 12:16:42;;;;;;;10.60;8.40;;;3.00;99.90;;;;;;5048877;28;20294;-83
2023/12/01 12:19:09;;;;;;;12.80;7.90;;;3.30;99.90;;;;;;5045488;28;20646;-86
2023/12/01 12:21:37;;;;;;;8.70;6.90;;;3.30;99.90;;;;;;5043697;28;20653;-82
2023/12/01 12:24:05;;;;;;;6.83;5.90;;;3.20;99.90;;;;;;5047626;28;20647;-82
2023/12/01 12:26:32;;;;;;;6.50;5.60;;;3.00;99.90;;;;;;5042717;28;20271;-82
2023/12/01 12:29:01;;;;;;;9.37;6.27;;;2.90;99.90;;;;;;5054180;28;20709;-81
2023/12/01 12:31:31;;;;;;;6.93;5.97;;;2.90;99.90;;;;;;5044061;28;20193;-81
2023/12/01 12:33:59;;;;;;;11.53;6.53;;;2.80;99.90;;;;;;5042459;28;20209;-82
2023/12/01 12:36:27;;;;;;;8.47;6.60;;;2.70;99.90;;;;;;5047745;28;20198;-84
2023/12/01 12:38:54;;;;;;;8.87;6.70;;;2.80;99.90;;;;;;5051481;28;20209;-85
2023/12/01 12:41:23;;;;;;;8.50;6.77;;;2.90;99.90;;;;;;5048908;28;20205;-82
2023/12/01 12:43:52;;;;;;;10.77;7.20;;;3.20;99.90;;;;;;5047977;28;20202;-83
2023/12/01 12:46:21;;;;;;;9.87;7.20;;;3.10;99.90;;;;;;5051105;28;20236;-83
2023/12/01 12:48:48;;;;;;;11.83;7.23;;;3.10;99.90;;;;;;5046890;28;20218;-84
2023/12/01 12:51:16;;;;;;;9.23;7.93;;;3.00;99.90;;;;;;5047865;28;20200;-84
2023/12/01 12:53:44;;;;;;;9.77;7.53;;;2.90;99.90;;;;;;5046249;28;20213;-86
2023/12/01 12:56:17;;;;;;;8.40;7.50;;;2.90;99.90;;;;;;5043507;28;20206;-83
2023/12/01 12:58:45;;;;;;;8.93;7.37;;;2.80;99.90;;;;;;5042449;28;20199;-89
2023/12/01 13:01:13;;;;;;;9.03;7.73;;;2.80;99.90;;;;;;5045458;28;20208;-88
2023/12/01 13:03:42;;;;;;;11.13;8.33;;;2.70;99.90;;;;;;5045731;28;20767;-86
2023/12/01 13:06:10;;;;;;;9.03;7.53;;;2.70;99.90;;;;;;5044543;28;20218;-84
2023/12/01 13:08:38;;;;;;;8.70;7.43;;;2.60;99.90;;;;;;5046381;28;20201;-85
2023/12/01 13:11:07;;;;;;;11.00;8.57;;;2.50;99.90;;;;;;5048015;28;20195;-84
2023/12/01 13:13:35;;;;;;;9.37;7.73;;;2.60;99.90;;;;;;5042927;28;20202;-89
2023/12/01 13:16:03;;;;;;;11.23;7.90;;;2.50;99.90;;;;;;5045384;28;20224;-82
2023/12/01 13:18:30;;;;;;;10.50;7.83;;;2.50;99.90;;;;;;5050806;28;20217;-85
2023/12/01 13:20:58;;;;;;;9.90;7.43;;;2.50;99.90;;;;;;5042627;28;20765;-83
2023/12/01 13:23:25;;;;;;;9.30;7.63;;;2.40;99.90;;;;;;5047797;28;20222;-86
2023/12/01 13:25:52;;;;;;;11.33;7.97;;;2.40;99.90;;;;;;5045372;28;20222;-83
2023/12/01 13:28:21;;;;;;;9.87;7.70;;;2.30;99.90;;;;;;5044803;28;20204;-81
2023/12/01 13:30:49;;;;;;;10.80;8.57;;;2.40;99.90;;;;;;5045139;28;20247;-83
2023/12/01 13:33:16;;;;;;;11.47;8.20;;;2.40;99.90;;;;;;5049316;28;20204;-84
2023/12/01 13:35:42;;;;;;;9.80;8.13;;;2.30;99.90;;;;;;5045382;28;20199;-82
2023/12/01 13:38:12;;;;;;;8.83;7.90;;;2.50;99.90;;;;;;5043252;28;20201;-82